Time;durP1;ratioP1;P1;durP2;ratioP2;P2;SDS_P1;SDS_P2;PMS_P1;PMS_P2;Temp;Humidity;BMP_temperature;BMP_pressure;BME280_temperature;BME280_humidity;BME280_pressure;Samples;Min_cycle;Max_cycle;Signal;HPM_P1;HPM_P2
2021/06/07 00:01:09;;;;;;;20.92;16.15;;;;;;;;;;5024322;28;20296;-70
2021/06/07 00:03:35;;;;;;;21.38;16.00;;;;;;;;;;5013059;28;20190;-70
2021/06/07 00:06:01;;;;;;;25.27;16.35;;;;;;;;;;5022582;28;20645;-70
2021/06/07 00:08:26;;;;;;;19.40;15.27;;;;;;;;;;5023466;28;20728;-70
2021/06/07 00:10:52;;;;;;;21.90;16.00;;;;;;;;;;5017854;28;20186;-70
2021/06/07 00:13:18;;;;;;;16.70;14.20;;;;;;;;;;5023227;28;20232;-70
2021/06/07 00:15:44;;;;;;;17.60;14.93;;;;;;;;;;5021915;28;20241;-70
2021/06/07 00:18:10;;;;;;;16.58;14.13;;;;;;;;;;5023834;28;20177;-70
2021/06/07 00:20:43;;;;;;;19.58;14.40;;;;;;;;;;5018215;28;20613;-70
2021/06/07 00:23:10;;;;;;;17.15;14.07;;;;;;;;;;5022022;28;20191;-70
2021/06/07 00:25:37;;;;;;;14.13;12.63;;;;;;;;;;5024799;28;20182;-70
2021/06/07 00:28:03;;;;;;;13.88;12.27;;;;;;;;;;5022186;28;20198;-70
2021/06/07 00:30:28;;;;;;;18.05;11.80;;;;;;;;;;5019515;28;20189;-70
2021/06/07 00:32:54;;;;;;;18.20;12.07;;;;;;;;;;5021778;28;20217;-70
2021/06/07 00:35:22;;;;;;;15.60;12.15;;;;;;;;;;5010549;28;20273;-70
2021/06/07 00:37:48;;;;;;;15.82;11.38;;;;;;;;;;5018837;28;20538;-70
2021/06/07 00:40:14;;;;;;;18.23;11.55;;;;;;;;;;5019194;28;20198;-70
2021/06/07 00:42:40;;;;;;;16.48;10.35;;;;;;;;;;5011235;28;20310;-70
2021/06/07 00:45:08;;;;;;;16.33;10.57;;;;;;;;;;5016921;28;20194;-70
2021/06/07 00:47:34;;;;;;;13.80;9.95;;;;;;;;;;5014363;28;20551;-70
2021/06/07 00:49:59;;;;;;;14.52;9.55;;;;;;;;;;5027619;28;20179;-70
2021/06/07 00:52:25;;;;;;;11.63;9.10;;;;;;;;;;5012593;28;20190;-70
2021/06/07 00:54:50;;;;;;;14.45;8.82;;;;;;;;;;5029101;28;20665;-70
2021/06/07 00:57:16;;;;;;;11.25;8.65;;;;;;;;;;5011243;28;20186;-70
2021/06/07 00:59:41;;;;;;;11.07;8.50;;;;;;;;;;5028017;28;20265;-70
2021/06/07 01:02:07;;;;;;;12.07;8.60;;;;;;;;;;5013433;28;20744;-70
2021/06/07 01:04:32;;;;;;;11.57;8.30;;;;;;;;;;5022606;28;20516;-70
2021/06/07 01:06:58;;;;;;;10.88;8.07;;;;;;;;;;5014478;28;23345;-70
2021/06/07 01:09:23;;;;;;;12.20;7.60;;;;;;;;;;5027296;28;20178;-70
2021/06/07 01:11:48;;;;;;;10.88;7.55;;;;;;;;;;5028965;28;20189;-70
2021/06/07 01:14:14;;;;;;;8.00;7.10;;;;;;;;;;5020874;28;20240;-70
2021/06/07 01:16:39;;;;;;;12.90;7.18;;;;;;;;;;5024607;28;20193;-70
2021/06/07 01:19:07;;;;;;;12.88;7.65;;;;;;;;;;5011750;28;20245;-69
2021/06/07 01:21:32;;;;;;;11.90;6.78;;;;;;;;;;5023307;28;20193;-71
2021/06/07 01:23:58;;;;;;;9.85;6.45;;;;;;;;;;5013280;28;20198;-69
2021/06/07 01:26:25;;;;;;;12.73;6.50;;;;;;;;;;5023759;28;20662;-69
2021/06/07 01:28:51;;;;;;;7.78;5.85;;;;;;;;;;5015042;28;20182;-69
2021/06/07 01:31:18;;;;;;;9.77;6.13;;;;;;;;;;5018285;28;20727;-69
2021/06/07 01:33:46;;;;;;;11.55;6.72;;;;;;;;;;5015651;28;20190;-69
2021/06/07 01:36:12;;;;;;;9.18;6.22;;;;;;;;;;5019387;28;20190;-69
2021/06/07 01:38:38;;;;;;;9.40;5.55;;;;;;;;;;5013159;28;20279;-69
2021/06/07 01:41:09;;;;;;;6.38;5.60;;;;;;;;;;5022550;28;20198;-69
2021/06/07 01:43:36;;;;;;;10.25;5.90;;;;;;;;;;5015666;28;20233;-69
2021/06/07 01:46:03;;;;;;;7.25;5.93;;;;;;;;;;5023391;28;20185;-69
2021/06/07 01:48:29;;;;;;;7.25;5.50;;;;;;;;;;5022699;28;20199;-69
2021/06/07 01:50:58;;;;;;;8.32;5.65;;;;;;;;;;5016506;28;20244;-69
2021/06/07 01:53:26;;;;;;;9.13;5.40;;;;;;;;;;5026097;28;20208;-69
2021/06/07 01:55:55;;;;;;;9.63;5.90;;;;;;;;;;5018856;28;20220;-69
2021/06/07 01:58:23;;;;;;;7.88;5.60;;;;;;;;;;5025990;28;20178;-69
2021/06/07 02:00:54;;;;;;;9.57;5.85;;;;;;;;;;5020899;28;20194;-69
2021/06/07 02:03:21;;;;;;;9.20;5.80;;;;;;;;;;5018828;28;20603;-69
2021/06/07 02:05:51;;;;;;;8.77;5.47;;;;;;;;;;5017137;28;20190;-69
2021/06/07 02:08:19;;;;;;;9.43;5.53;;;;;;;;;;5029495;28;20588;-71
2021/06/07 02:10:48;;;;;;;10.00;6.10;;;;;;;;;;5021008;28;20200;-69
2021/06/07 02:13:14;;;;;;;8.95;5.65;;;;;;;;;;5022632;28;20193;-69
2021/06/07 02:15:40;;;;;;;11.35;6.25;;;;;;;;;;5018668;28;20193;-69
2021/06/07 02:18:08;;;;;;;10.60;6.07;;;;;;;;;;5026705;28;20237;-69
2021/06/07 02:20:35;;;;;;;8.25;5.57;;;;;;;;;;5019382;28;20217;-69
2021/06/07 02:23:00;;;;;;;9.10;5.57;;;;;;;;;;5023893;28;20708;-69
2021/06/07 02:25:26;;;;;;;6.88;5.72;;;;;;;;;;5029542;28;20194;-69
2021/06/07 02:27:52;;;;;;;9.98;5.18;;;;;;;;;;5018279;28;20727;-69
2021/06/07 02:30:21;;;;;;;8.25;5.88;;;;;;;;;;5026337;28;20197;-69
2021/06/07 02:32:46;;;;;;;8.57;5.60;;;;;;;;;;5017756;28;20572;-69
2021/06/07 02:35:15;;;;;;;10.43;5.75;;;;;;;;;;5026518;28;20222;-70
2021/06/07 02:37:41;;;;;;;7.43;5.40;;;;;;;;;;5019330;28;20221;-70
2021/06/07 02:40:09;;;;;;;11.10;5.47;;;;;;;;;;5024352;28;20562;-69
2021/06/07 02:42:36;;;;;;;10.30;5.45;;;;;;;;;;5017937;28;20236;-70
2021/06/07 02:45:03;;;;;;;5.78;4.68;;;;;;;;;;5023865;28;20705;-69
2021/06/07 02:47:29;;;;;;;9.20;5.22;;;;;;;;;;5018284;28;20288;-70
2021/06/07 02:49:54;;;;;;;8.95;5.63;;;;;;;;;;5029114;28;20628;-70
2021/06/07 02:52:19;;;;;;;9.68;4.95;;;;;;;;;;5015510;28;20666;-70
2021/06/07 02:54:45;;;;;;;6.53;5.22;;;;;;;;;;5025760;28;20185;-70
2021/06/07 02:57:11;;;;;;;8.35;5.57;;;;;;;;;;5017312;28;20227;-69
2021/06/07 02:59:36;;;;;;;5.90;5.15;;;;;;;;;;5025806;28;20663;-70
2021/06/07 03:02:01;;;;;;;7.85;5.25;;;;;;;;;;5022407;28;21838;-70
2021/06/07 03:04:27;;;;;;;8.43;5.20;;;;;;;;;;5019515;28;20192;-70
2021/06/07 03:06:52;;;;;;;8.15;5.20;;;;;;;;;;5021322;28;20289;-70
2021/06/07 03:09:18;;;;;;;9.65;5.53;;;;;;;;;;5024976;28;20197;-70
2021/06/07 03:11:43;;;;;;;9.77;5.40;;;;;;;;;;5022285;28;20551;-70
2021/06/07 03:14:08;;;;;;;7.22;5.20;;;;;;;;;;5015224;28;20196;-70
2021/06/07 03:16:34;;;;;;;8.55;5.10;;;;;;;;;;5023605;28;20191;-70
2021/06/07 03:18:59;;;;;;;6.63;5.05;;;;;;;;;;5018964;28;20194;-70
2021/06/07 03:21:24;;;;;;;7.78;5.32;;;;;;;;;;5017180;28;20284;-69
2021/06/07 03:23:50;;;;;;;7.78;4.75;;;;;;;;;;5012141;28;20274;-70
2021/06/07 03:26:15;;;;;;;6.90;5.40;;;;;;;;;;5024326;28;20194;-69
2021/06/07 03:28:41;;;;;;;5.82;4.70;;;;;;;;;;5024240;28;20199;-69
2021/06/07 03:31:07;;;;;;;7.00;5.05;;;;;;;;;;5016695;28;20177;-69
2021/06/07 03:33:33;;;;;;;10.77;5.20;;;;;;;;;;5026686;28;20182;-69
2021/06/07 03:35:59;;;;;;;7.00;5.13;;;;;;;;;;5013980;28;20589;-70
2021/06/07 03:38:26;;;;;;;10.93;5.00;;;;;;;;;;5026834;28;20174;-70
2021/06/07 03:40:53;;;;;;;8.48;4.80;;;;;;;;;;5012408;28;20240;-70
2021/06/07 03:43:20;;;;;;;7.03;4.40;;;;;;;;;;5028891;28;20597;-70
2021/06/07 03:45:45;;;;;;;9.82;5.38;;;;;;;;;;5015121;28;20193;-70
2021/06/07 03:48:11;;;;;;;6.43;4.60;;;;;;;;;;5023755;28;20208;-70
2021/06/07 03:50:38;;;;;;;7.53;4.80;;;;;;;;;;5015715;28;20208;-70
2021/06/07 03:53:05;;;;;;;8.52;4.90;;;;;;;;;;5025239;28;20175;-70
2021/06/07 03:55:31;;;;;;;7.55;4.80;;;;;;;;;;5014398;28;20714;-70
2021/06/07 03:57:57;;;;;;;8.18;4.82;;;;;;;;;;5027436;28;20265;-70
2021/06/07 04:00:26;;;;;;;7.07;5.00;;;;;;;;;;5016090;28;20273;-70
2021/06/07 04:02:52;;;;;;;6.40;4.70;;;;;;;;;;5024295;28;20549;-70
2021/06/07 04:05:17;;;;;;;7.32;5.18;;;;;;;;;;5025343;28;20201;-69
2021/06/07 04:07:43;;;;;;;8.15;5.18;;;;;;;;;;5015219;28;20682;-70
2021/06/07 04:10:21;;;;;;;7.40;4.82;;;;;;;;;;5026112;28;20229;-69
2021/06/07 04:12:48;;;;;;;6.70;5.03;;;;;;;;;;5015465;28;20484;-69
2021/06/07 04:15:17;;;;;;;8.43;4.43;;;;;;;;;;5024122;28;20614;-70
2021/06/07 04:17:42;;;;;;;7.15;4.68;;;;;;;;;;5014187;28;20214;-69
2021/06/07 04:20:11;;;;;;;6.90;4.15;;;;;;;;;;5018985;28;20264;-70
2021/06/07 04:22:37;;;;;;;5.60;4.65;;;;;;;;;;5018865;28;20187;-70
2021/06/07 04:25:05;;;;;;;5.40;4.47;;;;;;;;;;5026748;28;20273;-70
2021/06/07 04:27:31;;;;;;;5.00;4.43;;;;;;;;;;5011342;28;20206;-70
2021/06/07 04:29:56;;;;;;;7.20;4.60;;;;;;;;;;5024071;28;20209;-69
2021/06/07 04:32:22;;;;;;;6.75;4.47;;;;;;;;;;5014270;28;20186;-70
2021/06/07 04:34:47;;;;;;;8.02;4.38;;;;;;;;;;5023218;28;20187;-70
2021/06/07 04:37:13;;;;;;;7.63;4.50;;;;;;;;;;5010898;28;20182;-70
2021/06/07 04:39:39;;;;;;;7.90;4.70;;;;;;;;;;5023278;28;20689;-70
2021/06/07 04:42:06;;;;;;;8.32;4.95;;;;;;;;;;5029118;28;20225;-70
2021/06/07 04:44:31;;;;;;;5.28;4.78;;;;;;;;;;5013771;28;20201;-70
2021/06/07 04:46:57;;;;;;;8.00;4.80;;;;;;;;;;5025576;28;20210;-70
2021/06/07 04:49:22;;;;;;;6.68;4.70;;;;;;;;;;5017443;28;20665;-70
2021/06/07 04:51:47;;;;;;;6.18;4.97;;;;;;;;;;5022722;28;20182;-70
2021/06/07 04:54:13;;;;;;;8.82;5.03;;;;;;;;;;5012469;28;20186;-70
2021/06/07 04:56:38;;;;;;;7.28;4.90;;;;;;;;;;5022312;28;20181;-70
2021/06/07 04:59:04;;;;;;;6.75;4.72;;;;;;;;;;5013459;28;20197;-70
2021/06/07 05:01:29;;;;;;;7.10;4.88;;;;;;;;;;5025546;28;20271;-70
2021/06/07 05:03:55;;;;;;;7.45;5.05;;;;;;;;;;5014618;28;20189;-70
2021/06/07 05:06:20;;;;;;;8.65;5.05;;;;;;;;;;5018668;28;20221;-70
2021/06/07 05:08:45;;;;;;;6.82;5.00;;;;;;;;;;5013873;28;20206;-70
2021/06/07 05:11:11;;;;;;;7.25;4.90;;;;;;;;;;5018560;28;20191;-70
2021/06/07 05:13:36;;;;;;;6.78;4.57;;;;;;;;;;5034134;28;20609;-70
2021/06/07 05:16:02;;;;;;;7.68;4.55;;;;;;;;;;5009738;28;20218;-70
2021/06/07 05:18:28;;;;;;;6.75;4.57;;;;;;;;;;5021978;28;20629;-70
2021/06/07 05:20:54;;;;;;;6.40;4.70;;;;;;;;;;5010904;28;20255;-70
2021/06/07 05:23:20;;;;;;;6.72;4.65;;;;;;;;;;5023517;28;20190;-70
2021/06/07 05:25:46;;;;;;;6.93;4.45;;;;;;;;;;5013737;28;20190;-70
2021/06/07 05:28:14;;;;;;;7.03;4.38;;;;;;;;;;5028763;28;20216;-70
2021/06/07 05:30:42;;;;;;;5.88;4.65;;;;;;;;;;5014509;28;20563;-70
2021/06/07 05:33:07;;;;;;;5.70;4.72;;;;;;;;;;5022276;28;20221;-70
2021/06/07 05:35:39;;;;;;;6.50;4.63;;;;;;;;;;5029819;28;20182;-71
2021/06/07 05:38:06;;;;;;;6.43;4.70;;;;;;;;;;5028045;28;20176;-71
2021/06/07 05:40:31;;;;;;;8.32;5.22;;;;;;;;;;5008637;28;20251;-70
2021/06/07 05:42:58;;;;;;;11.52;4.93;;;;;;;;;;5025054;28;20241;-70
2021/06/07 05:45:24;;;;;;;7.40;5.10;;;;;;;;;;4325914;28;10000794;-70
2021/06/07 05:47:50;;;;;;;8.13;4.38;;;;;;;;;;5015169;28;20348;-70
2021/06/07 05:50:18;;;;;;;6.93;4.75;;;;;;;;;;5016662;28;20267;-70
2021/06/07 05:52:47;;;;;;;8.07;4.53;;;;;;;;;;5012801;28;20265;-70
2021/06/07 05:55:35;;;;;;;5.25;4.70;;;;;;;;;;5018416;28;20287;-71
2021/06/07 05:58:04;;;;;;;5.68;4.30;;;;;;;;;;5014141;28;20189;-70
2021/06/07 06:00:32;;;;;;;6.78;4.35;;;;;;;;;;5015494;28;20186;-70
2021/06/07 06:02:57;;;;;;;6.97;4.30;;;;;;;;;;5007961;28;20206;-70
2021/06/07 06:05:23;;;;;;;10.65;4.63;;;;;;;;;;5018196;28;20189;-70
2021/06/07 06:07:49;;;;;;;5.60;3.92;;;;;;;;;;5016724;28;20213;-70
2021/06/07 06:10:16;;;;;;;6.22;4.18;;;;;;;;;;5014929;28;20196;-70
2021/06/07 06:12:42;;;;;;;6.95;4.05;;;;;;;;;;5016754;28;20301;-70
2021/06/07 06:15:10;;;;;;;4.72;4.22;;;;;;;;;;5015946;28;20206;-70
2021/06/07 06:17:36;;;;;;;8.00;4.30;;;;;;;;;;5003294;28;20256;-70
2021/06/07 06:20:03;;;;;;;7.10;4.53;;;;;;;;;;5016867;28;20183;-70
2021/06/07 06:22:28;;;;;;;6.50;4.15;;;;;;;;;;5013836;28;20193;-70
2021/06/07 06:24:54;;;;;;;8.98;4.85;;;;;;;;;;5021556;28;20563;-69
2021/06/07 06:27:19;;;;;;;7.85;4.05;;;;;;;;;;5015614;28;20285;-70
2021/06/07 06:29:45;;;;;;;4.78;4.10;;;;;;;;;;5013304;28;20594;-70
2021/06/07 06:32:11;;;;;;;4.80;4.13;;;;;;;;;;5023196;28;20185;-70
2021/06/07 06:34:39;;;;;;;6.90;4.28;;;;;;;;;;5012369;28;20190;-70
2021/06/07 06:37:05;;;;;;;6.57;4.15;;;;;;;;;;5028199;28;20235;-70
2021/06/07 06:39:30;;;;;;;5.70;3.80;;;;;;;;;;5015618;28;20197;-70
2021/06/07 06:41:56;;;;;;;5.75;3.85;;;;;;;;;;5032025;28;20182;-70
2021/06/07 06:44:21;;;;;;;6.70;3.53;;;;;;;;;;5014092;28;20562;-70
2021/06/07 06:46:47;;;;;;;4.78;3.20;;;;;;;;;;5028912;28;20183;-69
2021/06/07 06:49:12;;;;;;;3.67;3.10;;;;;;;;;;5008786;28;20316;-69
2021/06/07 06:51:37;;;;;;;4.85;2.80;;;;;;;;;;5031602;28;20232;-70
2021/06/07 06:54:03;;;;;;;3.88;2.63;;;;;;;;;;5021339;28;20190;-69
2021/06/07 06:56:29;;;;;;;3.58;2.13;;;;;;;;;;5023897;28;20178;-70
2021/06/07 06:58:54;;;;;;;4.47;2.42;;;;;;;;;;5029954;28;20194;-69
2021/06/07 07:01:19;;;;;;;5.43;2.30;;;;;;;;;;5015907;28;20213;-70
2021/06/07 07:03:47;;;;;;;6.00;2.53;;;;;;;;;;5029751;28;20571;-70
2021/06/07 07:06:12;;;;;;;5.07;2.75;;;;;;;;;;5017035;28;20235;-70
2021/06/07 07:08:38;;;;;;;6.05;2.72;;;;;;;;;;5027261;28;20245;-70
2021/06/07 07:11:03;;;;;;;3.88;2.50;;;;;;;;;;5014346;28;20195;-70
2021/06/07 07:13:29;;;;;;;5.90;2.78;;;;;;;;;;5026407;28;20186;-70
2021/06/07 07:15:54;;;;;;;2.33;1.90;;;;;;;;;;5017019;28;20610;-70
2021/06/07 07:18:19;;;;;;;3.63;1.90;;;;;;;;;;5024703;28;20541;-69
2021/06/07 07:20:45;;;;;;;5.93;2.00;;;;;;;;;;5016047;28;20561;-69
2021/06/07 07:23:11;;;;;;;3.25;1.80;;;;;;;;;;5021980;28;20182;-69
2021/06/07 07:25:38;;;;;;;4.80;1.65;;;;;;;;;;5019400;28;20181;-69
2021/06/07 07:28:05;;;;;;;3.20;1.83;;;;;;;;;;5025188;28;20241;-69
2021/06/07 07:30:31;;;;;;;4.60;1.95;;;;;;;;;;5019194;28;20170;-70
2021/06/07 07:32:57;;;;;;;2.70;1.85;;;;;;;;;;5018303;28;20273;-70
2021/06/07 07:35:23;;;;;;;2.50;2.20;;;;;;;;;;5025854;28;20261;-70
2021/06/07 07:37:49;;;;;;;5.47;1.98;;;;;;;;;;5018397;28;20591;-69
2021/06/07 07:40:18;;;;;;;2.65;2.03;;;;;;;;;;5021120;28;20233;-70
2021/06/07 07:42:44;;;;;;;3.92;2.00;;;;;;;;;;5015233;28;20257;-70
2021/06/07 07:45:11;;;;;;;4.70;1.70;;;;;;;;;;5020322;28;20229;-70
2021/06/07 07:47:37;;;;;;;3.03;1.90;;;;;;;;;;5017929;28;20213;-69
2021/06/07 07:50:23;;;;;;;6.80;2.15;;;;;;;;;;5023410;28;20280;-69
2021/06/07 07:52:48;;;;;;;3.83;1.95;;;;;;;;;;5018062;28;20283;-71
2021/06/07 07:55:18;;;;;;;4.80;1.48;;;;;;;;;;5022380;28;20665;-70
2021/06/07 07:57:43;;;;;;;2.53;1.60;;;;;;;;;;5013341;28;20197;-69
2021/06/07 08:00:11;;;;;;;4.57;1.48;;;;;;;;;;5024206;28;20185;-71
2021/06/07 08:02:37;;;;;;;3.85;1.60;;;;;;;;;;5017081;28;20205;-71
2021/06/07 08:05:05;;;;;;;3.63;1.73;;;;;;;;;;5021832;28;20187;-70
2021/06/07 08:07:30;;;;;;;4.10;1.90;;;;;;;;;;5028381;28;20276;-75
2021/06/07 08:09:55;;;;;;;4.40;2.00;;;;;;;;;;5016899;28;20652;-71
2021/06/07 08:12:21;;;;;;;3.60;2.10;;;;;;;;;;5025718;28;20253;-71
2021/06/07 08:14:46;;;;;;;5.47;2.35;;;;;;;;;;5019054;28;20186;-70
2021/06/07 08:17:12;;;;;;;5.88;2.47;;;;;;;;;;5023271;28;20261;-70
2021/06/07 08:19:37;;;;;;;7.68;2.60;;;;;;;;;;5012295;28;20186;-70
2021/06/07 08:22:03;;;;;;;4.15;2.90;;;;;;;;;;5024372;28;20182;-72
2021/06/07 08:24:29;;;;;;;4.60;3.20;;;;;;;;;;5012844;28;20193;-73
2021/06/07 08:26:54;;;;;;;5.68;3.50;;;;;;;;;;5023321;28;20206;-71
2021/06/07 08:29:20;;;;;;;5.18;3.63;;;;;;;;;;5013006;28;20220;-69
2021/06/07 08:31:45;;;;;;;7.07;3.50;;;;;;;;;;5024967;28;20190;-70
2021/06/07 08:34:10;;;;;;;6.07;3.80;;;;;;;;;;5019981;28;20189;-71
2021/06/07 08:36:36;;;;;;;5.63;3.95;;;;;;;;;;5013415;28;20255;-70
2021/06/07 08:39:02;;;;;;;5.93;3.65;;;;;;;;;;5018780;28;20182;-69
2021/06/07 08:41:27;;;;;;;5.47;3.67;;;;;;;;;;5020830;28;20308;-72
2021/06/07 08:43:53;;;;;;;5.47;3.80;;;;;;;;;;5021065;28;20288;-70
2021/06/07 08:46:18;;;;;;;4.60;3.95;;;;;;;;;;5016168;28;20672;-70
2021/06/07 08:48:44;;;;;;;4.78;3.83;;;;;;;;;;5024122;28;20233;-69
2021/06/07 08:51:10;;;;;;;6.43;4.38;;;;;;;;;;5016489;28;20272;-69
2021/06/07 08:53:36;;;;;;;4.88;4.38;;;;;;;;;;5020495;28;20204;-69
2021/06/07 08:56:03;;;;;;;7.55;4.40;;;;;;;;;;5015992;28;20190;-70
2021/06/07 08:58:28;;;;;;;4.50;4.10;;;;;;;;;;5023048;28;20186;-69
2021/06/07 09:00:54;;;;;;;7.72;4.32;;;;;;;;;;5014791;28;20283;-69
2021/06/07 09:03:21;;;;;;;5.00;3.78;;;;;;;;;;5024301;28;20198;-69
2021/06/07 09:05:57;;;;;;;6.75;4.70;;;;;;;;;;5021368;28;20224;-74
2021/06/07 09:08:30;;;;;;;5.10;4.22;;;;;;;;;;5021185;28;20660;-70
2021/06/07 09:10:57;;;;;;;5.28;4.10;;;;;;;;;;5019246;28;20185;-69
2021/06/07 09:13:27;;;;;;;7.63;4.03;;;;;;;;;;5018027;28;20217;-69
2021/06/07 09:15:55;;;;;;;6.32;3.20;;;;;;;;;;5023402;28;20174;-69
2021/06/07 09:18:35;;;;;;;4.72;2.67;;;;;;;;;;5016285;28;20193;-68
2021/06/07 09:21:13;;;;;;;4.45;2.58;;;;;;;;;;5030929;28;20544;-69
2021/06/07 09:23:47;;;;;;;4.28;2.20;;;;;;;;;;5013616;28;20779;-69
2021/06/07 09:26:25;;;;;;;2.47;1.90;;;;;;;;;;5022208;28;20311;-69
2021/06/07 09:28:54;;;;;;;4.28;2.28;;;;;;;;;;5011584;28;20252;-69
2021/06/07 09:31:25;;;;;;;5.00;2.20;;;;;;;;;;5024530;28;20584;-71
2021/06/07 09:33:51;;;;;;;6.47;1.95;;;;;;;;;;5011975;28;20206;-66
2021/06/07 09:36:23;;;;;;;3.15;1.52;;;;;;;;;;5023320;28;20228;-72
2021/06/07 09:39:02;;;;;;;4.80;2.05;;;;;;;;;;5015203;28;20584;-69
2021/06/07 09:41:30;;;;;;;2.90;1.90;;;;;;;;;;5019000;28;20177;-69
2021/06/07 09:43:59;;;;;;;5.00;2.08;;;;;;;;;;5009585;28;20234;-71
2021/06/07 09:46:28;;;;;;;5.35;2.15;;;;;;;;;;5027835;28;20304;-73
2021/06/07 09:49:08;;;;;;;5.00;2.00;;;;;;;;;;5013981;28;20229;-70
2021/06/07 09:51:34;;;;;;;2.67;1.85;;;;;;;;;;5025274;28;20200;-73
2021/06/07 09:53:59;;;;;;;6.20;1.80;;;;;;;;;;5013027;28;20664;-72
2021/06/07 09:56:26;;;;;;;3.35;1.63;;;;;;;;;;5029683;28;20217;-72
2021/06/07 09:58:52;;;;;;;3.90;1.90;;;;;;;;;;5013819;28;20186;-70
2021/06/07 10:01:23;;;;;;;2.80;2.10;;;;;;;;;;5025335;28;20213;-70
2021/06/07 10:03:56;;;;;;;3.50;2.55;;;;;;;;;;5014171;28;20272;-75
2021/06/07 10:06:33;;;;;;;3.60;2.10;;;;;;;;;;5020535;28;20660;-74
2021/06/07 10:09:05;;;;;;;4.85;2.13;;;;;;;;;;5017876;28;20708;-70
2021/06/07 10:11:36;;;;;;;6.30;2.10;;;;;;;;;;5015934;28;20257;-70
2021/06/07 10:14:19;;;;;;;3.83;1.67;;;;;;;;;;5022535;28;20248;-69
2021/06/07 10:16:59;;;;;;;3.13;1.92;;;;;;;;;;5022049;28;20709;-70
2021/06/07 10:19:33;;;;;;;3.58;1.83;;;;;;;;;;5021758;28;20542;-67
2021/06/07 10:22:00;;;;;;;4.15;2.60;;;;;;;;;;5019758;28;20193;-73
2021/06/07 10:24:26;;;;;;;3.28;1.88;;;;;;;;;;5024643;28;20749;-72
2021/06/07 10:26:51;;;;;;;3.75;2.20;;;;;;;;;;5018742;28;20265;-70
2021/06/07 10:29:17;;;;;;;3.30;1.80;;;;;;;;;;5025201;28;20272;-70
2021/06/07 10:31:42;;;;;;;4.15;1.77;;;;;;;;;;5014188;28;20295;-76
2021/06/07 10:34:10;;;;;;;3.63;1.92;;;;;;;;;;5025124;28;20177;-71
2021/06/07 10:36:40;;;;;;;3.80;1.70;;;;;;;;;;5016444;28;20190;-76
2021/06/07 10:39:16;;;;;;;3.33;1.60;;;;;;;;;;5026566;28;20232;-71
2021/06/07 10:42:01;;;;;;;3.25;1.83;;;;;;;;;;5019694;28;20193;-70
2021/06/07 10:44:39;;;;;;;5.80;2.05;;;;;;;;;;5027694;28;20692;-72
2021/06/07 10:47:07;;;;;;;3.42;1.90;;;;;;;;;;5010813;28;20254;-69
2021/06/07 10:49:38;;;;;;;3.80;1.83;;;;;;;;;;5028302;28;20186;-72
2021/06/07 10:52:27;;;;;;;2.80;2.20;;;;;;;;;;5020978;28;20205;-70
2021/06/07 10:55:07;;;;;;;3.53;2.30;;;;;;;;;;5023462;28;20170;-69
2021/06/07 10:57:36;;;;;;;4.25;2.08;;;;;;;;;;5021902;28;20192;-75
2021/06/07 11:00:08;;;;;;;4.35;2.00;;;;;;;;;;5024630;28;20182;-71
2021/06/07 11:02:39;;;;;;;2.63;1.92;;;;;;;;;;5017692;28;20221;-78
2021/06/07 11:05:06;;;;;;;3.58;2.40;;;;;;;;;;5017638;28;20189;-71
2021/06/07 11:07:32;;;;;;;6.65;2.10;;;;;;;;;;5019289;28;20305;-71
2021/06/07 11:10:08;;;;;;;4.32;2.35;;;;;;;;;;5022928;28;20257;-71
2021/06/07 11:12:34;;;;;;;3.03;1.98;;;;;;;;;;5018984;28;20198;-71
2021/06/07 11:15:15;;;;;;;3.25;2.10;;;;;;;;;;5020570;28;20178;-70
2021/06/07 11:17:42;;;;;;;4.97;2.15;;;;;;;;;;5018330;28;20190;-70
2021/06/07 11:20:09;;;;;;;2.50;1.92;;;;;;;;;;5025955;28;20186;-70
2021/06/07 11:23:13;;;;;;;3.15;2.25;;;;;;;;;;5026325;28;20189;-78
2021/06/07 11:25:52;;;;;;;4.35;2.65;;;;;;;;;;5025895;28;20661;-71
2021/06/07 11:28:39;;;;;;;3.58;2.17;;;;;;;;;;5016849;28;20580;-72
2021/06/07 11:31:25;;;;;;;5.15;2.10;;;;;;;;;;5026162;28;20570;-70
2021/06/07 11:33:53;;;;;;;4.35;2.65;;;;;;;;;;5015653;28;20227;-71
2021/06/07 11:36:46;;;;;;;3.53;2.25;;;;;;;;;;5025981;28;20221;-70
2021/06/07 11:39:17;;;;;;;3.78;2.00;;;;;;;;;;5016841;28;20228;-70
2021/06/07 11:41:56;;;;;;;4.00;2.30;;;;;;;;;;5025085;28;20190;-70
2021/06/07 11:44:43;;;;;;;3.13;2.00;;;;;;;;;;5014919;28;20628;-70
2021/06/07 11:47:10;;;;;;;3.03;2.10;;;;;;;;;;5023789;28;20205;-79
2021/06/07 11:49:36;;;;;;;4.10;2.28;;;;;;;;;;5015628;28;20248;-71
2021/06/07 11:52:10;;;;;;;6.05;2.95;;;;;;;;;;5025488;28;20239;-70
2021/06/07 11:54:36;;;;;;;3.03;2.10;;;;;;;;;;5019951;28;21060;-70
2021/06/07 11:57:09;;;;;;;3.55;2.30;;;;;;;;;;5024471;28;20503;-70
2021/06/07 11:59:38;;;;;;;2.85;2.30;;;;;;;;;;5019283;28;20180;-70
2021/06/07 12:02:19;;;;;;;5.43;2.40;;;;;;;;;;5023241;28;20677;-71
2021/06/07 12:04:45;;;;;;;4.30;2.50;;;;;;;;;;5026497;28;20169;-71
2021/06/07 12:07:12;;;;;;;4.22;2.60;;;;;;;;;;5013280;28;20213;-72
2021/06/07 12:09:39;;;;;;;2.72;2.25;;;;;;;;;;5021174;28;20534;-71
2021/06/07 12:12:06;;;;;;;4.63;2.20;;;;;;;;;;5013805;28;20174;-70
2021/06/07 12:14:36;;;;;;;3.67;2.13;;;;;;;;;;5019560;28;20185;-71
2021/06/07 12:17:05;;;;;;;2.75;2.20;;;;;;;;;;5011667;28;20276;-70
2021/06/07 12:19:40;;;;;;;2.90;2.28;;;;;;;;;;5024620;28;20575;-70
2021/06/07 12:22:06;;;;;;;3.03;2.15;;;;;;;;;;5015636;28;20191;-71
2021/06/07 12:24:33;;;;;;;4.82;2.55;;;;;;;;;;5025327;28;20174;-72
2021/06/07 12:29:45;;;;;;;3.83;2.55;;;;;;;;;;5023484;28;20621;-71
2021/06/07 12:32:21;;;;;;;4.57;2.80;;;;;;;;;;4328487;28;10000852;-71
2021/06/07 12:35:06;;;;;;;3.63;2.67;;;;;;;;;;5018512;28;20204;-71
2021/06/07 12:37:39;;;;;;;6.03;3.15;;;;;;;;;;5009289;28;20205;-70
2021/06/07 12:40:16;;;;;;;3.78;2.47;;;;;;;;;;5018802;28;20252;-71
2021/06/07 12:42:43;;;;;;;4.18;3.05;;;;;;;;;;5007989;28;20272;-72
2021/06/07 12:45:12;;;;;;;4.32;2.40;;;;;;;;;;5016924;28;20181;-70
2021/06/07 12:47:37;;;;;;;5.22;2.60;;;;;;;;;;5011656;28;20686;-71
2021/06/07 12:50:17;;;;;;;4.40;2.90;;;;;;;;;;5020593;28;20201;-71
2021/06/07 12:52:47;;;;;;;3.70;2.85;;;;;;;;;;5009561;28;21147;-70
2021/06/07 12:55:16;;;;;;;5.72;2.30;;;;;;;;;;5016210;28;20236;-70
2021/06/07 12:57:42;;;;;;;2.67;2.08;;;;;;;;;;5013118;28;20202;-70
2021/06/07 13:00:28;;;;;;;3.95;2.40;;;;;;;;;;5016091;28;20524;-71
2021/06/07 13:02:54;;;;;;;5.10;2.40;;;;;;;;;;5012500;28;20174;-71
2021/06/07 13:05:27;;;;;;;4.57;2.75;;;;;;;;;;5025766;28;20182;-71
2021/06/07 13:08:21;;;;;;;4.55;3.05;;;;;;;;;;5019330;28;20201;-75
2021/06/07 13:10:52;;;;;;;3.50;3.20;;;;;;;;;;5024669;28;20235;-70
2021/06/07 13:13:30;;;;;;;5.28;2.83;;;;;;;;;;5024990;28;20232;-70
2021/06/07 13:16:03;;;;;;;6.38;3.13;;;;;;;;;;5023666;28;20189;-70
2021/06/07 13:18:29;;;;;;;6.72;3.33;;;;;;;;;;5021527;28;20257;-71
2021/06/07 13:21:01;;;;;;;4.05;3.22;;;;;;;;;;5014855;28;20273;-70
2021/06/07 13:23:35;;;;;;;4.47;3.03;;;;;;;;;;5017738;28;20388;-71
2021/06/07 13:26:28;;;;;;;6.63;3.28;;;;;;;;;;5013911;28;20194;-70
2021/06/07 13:29:33;;;;;;;4.00;2.90;;;;;;;;;;5022759;28;20606;-71
2021/06/07 13:32:10;;;;;;;3.60;3.03;;;;;;;;;;5020977;28;20280;-70
2021/06/07 13:34:42;;;;;;;5.18;3.38;;;;;;;;;;5015537;28;20712;-70
2021/06/07 13:37:09;;;;;;;5.07;3.28;;;;;;;;;;5019128;28;20191;-70
2021/06/07 13:39:37;;;;;;;4.93;2.92;;;;;;;;;;5023664;28;20186;-71
2021/06/07 13:42:04;;;;;;;8.38;3.30;;;;;;;;;;5013185;28;20194;-70
2021/06/07 13:44:48;;;;;;;5.03;3.05;;;;;;;;;;5020520;28;20174;-71
2021/06/07 13:47:19;;;;;;;4.38;3.10;;;;;;;;;;5013784;28;20206;-72
2021/06/07 13:49:45;;;;;;;3.80;2.95;;;;;;;;;;5028155;28;20577;-71
2021/06/07 13:52:14;;;;;;;4.38;3.30;;;;;;;;;;5017413;28;20200;-73
2021/06/07 13:54:53;;;;;;;8.50;3.42;;;;;;;;;;5033919;28;20210;-71
2021/06/07 13:57:19;;;;;;;9.13;4.10;;;;;;;;;;5015290;28;20239;-71
2021/06/07 13:59:44;;;;;;;4.10;3.50;;;;;;;;;;5028972;28;20183;-74
2021/06/07 14:02:09;;;;;;;5.05;3.17;;;;;;;;;;5017357;28;20202;-70
2021/06/07 14:04:35;;;;;;;5.35;3.50;;;;;;;;;;5026459;28;20182;-70
2021/06/07 14:07:00;;;;;;;5.50;4.00;;;;;;;;;;5012151;28;20198;-70
2021/06/07 14:09:31;;;;;;;6.25;3.40;;;;;;;;;;5026226;28;20191;-71
2021/06/07 14:11:56;;;;;;;5.57;3.38;;;;;;;;;;5015959;28;20198;-70
2021/06/07 14:14:22;;;;;;;4.95;3.17;;;;;;;;;;5021833;28;20506;-70
2021/06/07 14:16:48;;;;;;;3.72;2.97;;;;;;;;;;5012324;28;20194;-70
2021/06/07 14:19:13;;;;;;;3.83;3.40;;;;;;;;;;5025101;28;20190;-70
2021/06/07 14:24:38;;;;;;;4.47;3.60;;;;;;;;;;5025433;28;20586;-77
2021/06/07 14:27:08;;;;;;;6.07;3.67;;;;;;;;;;5024112;28;20277;-69
2021/06/07 14:29:35;;;;;;;6.93;3.42;;;;;;;;;;5015325;28;20187;-72
2021/06/07 14:32:01;;;;;;;4.40;3.38;;;;;;;;;;5024410;28;20188;-70
2021/06/07 14:34:26;;;;;;;7.30;3.67;;;;;;;;;;5022625;28;20234;-70
2021/06/07 14:36:52;;;;;;;5.35;3.05;;;;;;;;;;5024296;28;20297;-69
2021/06/07 14:39:18;;;;;;;2.85;2.60;;;;;;;;;;5026949;28;20224;-70
2021/06/07 14:41:44;;;;;;;3.42;3.13;;;;;;;;;;5025447;28;20211;-70
2021/06/07 14:44:09;;;;;;;6.38;3.70;;;;;;;;;;5016780;28;20229;-71
2021/06/07 14:46:34;;;;;;;4.85;3.45;;;;;;;;;;5025576;28;20228;-70
2021/06/07 14:49:00;;;;;;;5.22;3.10;;;;;;;;;;5019342;28;20212;-69
2021/06/07 14:51:25;;;;;;;4.18;3.28;;;;;;;;;;5023329;28;20229;-68
2021/06/07 14:53:51;;;;;;;4.22;3.03;;;;;;;;;;5020148;28;20614;-74